Time;durP1;ratioP1;P1;durP2;ratioP2;P2;SDS_P1;SDS_P2;PMS_P1;PMS_P2;Temp;Humidity;BMP_temperature;BMP_pressure;BME280_temperature;BME280_humidity;BME280_pressure;Samples;Min_cycle;Max_cycle;Signal;HPM_P1;HPM_P2
2021/11/19 00:01:21;;;;;;;32.83;13.50;;;10.40;99.90;;;;;;5026554;28;20025;-64
2021/11/19 00:03:47;;;;;;;37.67;15.02;;;10.40;99.90;;;;;;5027346;28;20037;-64
2021/11/19 00:06:14;;;;;;;36.65;14.25;;;10.30;99.90;;;;;;5028921;28;20087;-64
2021/11/19 00:08:40;;;;;;;36.40;15.13;;;10.40;99.90;;;;;;5028070;28;20108;-65
2021/11/19 00:11:09;;;;;;;33.03;14.27;;;10.40;99.90;;;;;;5023819;28;20113;-64
2021/11/19 00:13:35;;;;;;;39.80;13.75;;;10.40;99.90;;;;;;5021033;28;20083;-64
2021/11/19 00:16:01;;;;;;;40.63;14.05;;;10.40;99.90;;;;;;5026193;28;20091;-64
2021/11/19 00:18:27;;;;;;;32.15;14.63;;;10.40;99.90;;;;;;5033324;28;20100;-63
2021/11/19 00:20:53;;;;;;;35.92;14.93;;;10.40;99.90;;;;;;5036071;28;20121;-64
2021/11/19 00:23:19;;;;;;;35.50;14.20;;;10.50;99.90;;;;;;5030223;28;20128;-63
2021/11/19 00:25:45;;;;;;;35.38;14.43;;;10.50;99.90;;;;;;5024196;28;20100;-63
2021/11/19 00:28:11;;;;;;;43.60;14.65;;;10.50;99.90;;;;;;5031274;28;20025;-63
2021/11/19 00:30:39;;;;;;;38.83;15.38;;;10.50;99.90;;;;;;5038912;28;20372;-63
2021/11/19 00:33:06;;;;;;;37.60;14.60;;;10.50;99.90;;;;;;5026034;28;20390;-63
2021/11/19 00:35:34;;;;;;;36.85;15.38;;;10.50;99.90;;;;;;5029209;28;20033;-63
2021/11/19 00:38:01;;;;;;;33.90;13.77;;;10.50;99.90;;;;;;5028389;28;20044;-64
2021/11/19 00:40:34;;;;;;;39.38;14.32;;;10.50;99.90;;;;;;5037660;28;20032;-63
2021/11/19 00:43:00;;;;;;;42.55;14.30;;;10.40;99.90;;;;;;5028758;28;20445;-63
2021/11/19 00:45:28;;;;;;;33.75;12.65;;;10.40;99.90;;;;;;5029720;28;20030;-63
2021/11/19 00:47:55;;;;;;;27.08;13.63;;;10.40;99.90;;;;;;5025707;28;20030;-63
2021/11/19 00:50:26;;;;;;;29.17;13.32;;;10.40;99.90;;;;;;5024482;28;20033;-63
2021/11/19 00:52:51;;;;;;;33.70;14.43;;;10.50;99.90;;;;;;5025474;28;20036;-63
2021/11/19 00:55:17;;;;;;;31.33;13.93;;;10.50;99.90;;;;;;5028846;28;20033;-65
2021/11/19 00:57:43;;;;;;;33.58;15.00;;;10.50;99.90;;;;;;5028100;28;20025;-64
2021/11/19 01:00:15;;;;;;;33.75;13.75;;;10.50;99.90;;;;;;5029430;28;20928;-64
2021/11/19 01:02:41;;;;;;;28.48;14.73;;;10.40;99.90;;;;;;5028685;28;20423;-64
2021/11/19 01:05:07;;;;;;;34.10;14.35;;;10.40;99.90;;;;;;5036034;28;20037;-64
2021/11/19 01:07:32;;;;;;;34.80;15.88;;;10.40;99.90;;;;;;5031130;28;20061;-63
2021/11/19 01:10:03;;;;;;;42.42;17.00;;;10.40;99.90;;;;;;5033058;28;20060;-65
2021/11/19 01:12:32;;;;;;;29.05;14.13;;;10.40;99.90;;;;;;5023429;28;20036;-65
2021/11/19 01:15:20;;;;;;;28.02;13.98;;;10.40;99.90;;;;;;5031994;28;20037;-65
2021/11/19 01:17:53;;;;;;;37.72;16.02;;;10.40;99.90;;;;;;5031552;28;20034;-64
2021/11/19 01:20:45;;;;;;;31.85;15.68;;;10.40;99.90;;;;;;5024673;28;20112;-65
2021/11/19 01:23:13;;;;;;;31.50;13.98;;;10.40;99.90;;;;;;5020445;28;20491;-65
2021/11/19 01:25:42;;;;;;;33.92;15.02;;;10.40;99.90;;;;;;5021276;28;20060;-65
2021/11/19 01:28:08;;;;;;;42.22;17.05;;;10.40;99.90;;;;;;5031976;28;20087;-65
2021/11/19 01:30:39;;;;;;;37.42;18.70;;;10.40;99.90;;;;;;5024191;28;20484;-64
2021/11/19 01:33:06;;;;;;;39.05;17.27;;;10.40;99.90;;;;;;5028603;28;20406;-64
2021/11/19 01:35:32;;;;;;;33.42;17.33;;;10.40;99.90;;;;;;5029397;28;20483;-65
2021/11/19 01:37:58;;;;;;;40.95;16.70;;;10.40;99.90;;;;;;5039011;23;20056;-59
2021/11/19 01:40:28;;;;;;;45.25;18.40;;;10.40;99.90;;;;;;5014012;28;20510;-60
2021/11/19 01:42:58;;;;;;;41.60;19.20;;;10.40;99.90;;;;;;5011218;28;20040;-58
2021/11/19 01:45:37;;;;;;;41.72;20.70;;;10.30;99.90;;;;;;5020587;28;20030;-61
2021/11/19 01:48:04;;;;;;;44.50;19.20;;;10.30;99.90;;;;;;5024081;28;20410;-61
2021/11/19 01:50:35;;;;;;;54.58;22.45;;;10.30;99.90;;;;;;5025353;28;20033;-60
2021/11/19 01:53:06;;;;;;;40.55;19.55;;;10.20;99.90;;;;;;5010600;28;20063;-61
2021/11/19 01:55:39;;;;;;;54.67;22.75;;;10.20;99.90;;;;;;5021105;28;20369;-60
2021/11/19 01:58:13;;;;;;;45.25;21.48;;;10.20;99.90;;;;;;5028489;28;20487;-58
2021/11/19 02:01:01;;;;;;;50.58;22.15;;;10.20;99.90;;;;;;5028286;28;20021;-61
2021/11/19 02:03:29;;;;;;;46.97;22.27;;;10.20;99.90;;;;;;5023747;28;20034;-60
2021/11/19 02:06:02;;;;;;;47.72;20.75;;;10.10;99.90;;;;;;5022884;28;20111;-61
2021/11/19 02:08:32;;;;;;;53.90;22.50;;;10.20;99.90;;;;;;5026054;28;20026;-60
2021/11/19 02:11:33;;;;;;;43.75;20.33;;;10.20;99.90;;;;;;5023766;28;20056;-60
2021/11/19 02:13:58;;;;;;;44.38;21.65;;;10.20;99.90;;;;;;5020773;28;20538;-60
2021/11/19 02:16:38;;;;;;;54.97;22.83;;;10.10;99.90;;;;;;5006500;28;20025;-60
2021/11/19 02:19:11;;;;;;;42.58;19.45;;;10.10;99.90;;;;;;5024642;28;20036;-61
2021/11/19 02:21:47;;;;;;;44.30;20.73;;;10.00;99.90;;;;;;5025253;28;20442;-60
2021/11/19 02:24:23;;;;;;;45.90;21.73;;;10.10;99.90;;;;;;5007965;28;20065;-61
2021/11/19 02:26:56;;;;;;;47.90;21.95;;;10.00;99.90;;;;;;5025054;28;20031;-61
2021/11/19 02:29:23;;;;;;;50.28;22.17;;;10.00;99.90;;;;;;5026276;28;20634;-61
2021/11/19 02:31:56;;;;;;;56.60;22.85;;;10.00;99.90;;;;;;5024881;28;20028;-61
2021/11/19 02:34:24;;;;;;;49.67;21.47;;;10.00;99.90;;;;;;5031971;28;20030;-61
2021/11/19 02:37:09;;;;;;;54.83;22.88;;;10.00;99.90;;;;;;5031383;28;20291;-61
2021/11/19 02:39:40;;;;;;;60.30;21.70;;;10.00;99.90;;;;;;5022473;28;20029;-61
2021/11/19 02:42:11;;;;;;;48.17;21.00;;;10.00;99.90;;;;;;5026259;28;20022;-61
2021/11/19 02:44:40;;;;;;;52.90;21.33;;;10.00;99.90;;;;;;5032006;28;20098;-60
2021/11/19 02:47:10;;;;;;;46.70;20.95;;;10.00;99.90;;;;;;5035630;28;20514;-61
2021/11/19 02:49:38;;;;;;;44.40;20.13;;;10.00;99.90;;;;;;5023536;28;20041;-61
2021/11/19 02:52:06;;;;;;;50.63;19.80;;;10.00;99.90;;;;;;5026584;28;20057;-60
2021/11/19 02:54:32;;;;;;;40.97;19.80;;;10.10;99.90;;;;;;5023107;28;20025;-60
2021/11/19 02:57:00;;;;;;;48.53;19.55;;;10.00;99.90;;;;;;5022379;28;20030;-60
2021/11/19 02:59:26;;;;;;;45.05;19.15;;;10.00;99.90;;;;;;5001704;28;20480;-58
2021/11/19 03:01:59;;;;;;;44.40;20.65;;;10.10;99.90;;;;;;5028623;28;20037;-59
2021/11/19 03:04:29;;;;;;;38.38;18.42;;;10.10;99.90;;;;;;5026671;28;20018;-61
2021/11/19 03:06:57;;;;;;;42.28;18.75;;;10.10;99.90;;;;;;5020926;28;20072;-60
2021/11/19 03:09:31;;;;;;;39.83;18.67;;;10.00;99.90;;;;;;5021553;28;20036;-60
2021/11/19 03:11:57;;;;;;;41.83;18.67;;;10.00;99.90;;;;;;5030649;28;20037;-60
2021/11/19 03:14:24;;;;;;;45.42;18.60;;;10.00;99.90;;;;;;5022840;28;20272;-61
2021/11/19 03:16:52;;;;;;;43.30;18.63;;;10.00;99.90;;;;;;5026214;28;20026;-60
2021/11/19 03:19:18;;;;;;;42.13;19.10;;;10.00;99.90;;;;;;5027575;28;20026;-60
2021/11/19 03:21:45;;;;;;;42.20;18.27;;;10.00;99.90;;;;;;5029539;28;20026;-61
2021/11/19 03:24:12;;;;;;;38.65;17.42;;;10.00;99.90;;;;;;5026671;28;20040;-60
2021/11/19 03:26:38;;;;;;;37.60;18.25;;;10.00;99.90;;;;;;5023199;28;20030;-61
2021/11/19 03:29:07;;;;;;;43.08;17.52;;;10.00;99.90;;;;;;5023772;28;20041;-60
2021/11/19 03:31:33;;;;;;;47.92;19.30;;;10.00;99.90;;;;;;5020126;28;20030;-61
2021/11/19 03:34:00;;;;;;;39.95;16.92;;;10.00;99.90;;;;;;5025241;28;20170;-61
2021/11/19 03:36:26;;;;;;;38.95;18.63;;;10.00;99.90;;;;;;5004451;28;20541;-61
2021/11/19 03:38:56;;;;;;;36.15;17.15;;;10.00;99.90;;;;;;5015695;28;20042;-61
2021/11/19 03:41:26;;;;;;;38.47;17.52;;;10.00;99.90;;;;;;5027687;28;20059;-60
2021/11/19 03:44:02;;;;;;;33.38;17.05;;;10.00;99.90;;;;;;5020124;28;20049;-60
2021/11/19 03:46:58;;;;;;;39.70;17.05;;;10.00;99.90;;;;;;5029382;28;20037;-61
2021/11/19 03:49:23;;;;;;;;;;;10.00;99.90;;;;;;5028477;28;20067;-61
2021/11/19 03:51:54;;;;;;;34.50;15.73;;;10.00;99.90;;;;;;5021898;28;19908;-62
2021/11/19 03:54:23;;;;;;;38.80;17.77;;;10.00;99.90;;;;;;5021324;28;20041;-61
2021/11/19 03:56:49;;;;;;;35.60;16.27;;;10.00;99.90;;;;;;5019132;28;20121;-60
2021/11/19 03:59:15;;;;;;;32.67;17.17;;;10.00;99.90;;;;;;5020467;28;20026;-61
2021/11/19 04:01:44;;;;;;;35.03;17.55;;;10.10;99.90;;;;;;5027554;28;20052;-60
2021/11/19 04:04:11;;;;;;;36.90;16.25;;;10.10;99.90;;;;;;5027450;28;20105;-60
2021/11/19 04:06:37;;;;;;;29.48;15.25;;;10.10;99.90;;;;;;5023618;28;20029;-61
2021/11/19 04:09:04;;;;;;;27.27;16.65;;;10.10;99.90;;;;;;5025323;28;20021;-61
2021/11/19 04:11:30;;;;;;;31.63;14.32;;;10.10;99.90;;;;;;5025925;28;20022;-61
2021/11/19 04:13:57;;;;;;;36.13;18.15;;;10.10;99.90;;;;;;5022187;28;20744;-59
2021/11/19 04:16:30;;;;;;;33.88;17.38;;;10.10;99.90;;;;;;5024742;28;20059;-61
2021/11/19 04:18:57;;;;;;;31.35;17.20;;;10.10;99.90;;;;;;5030043;28;20028;-61
2021/11/19 04:21:23;;;;;;;39.17;17.00;;;10.10;99.90;;;;;;5028890;28;20041;-61
2021/11/19 04:23:51;;;;;;;35.85;18.05;;;10.10;99.90;;;;;;5027592;28;20021;-61
2021/11/19 04:26:18;;;;;;;39.67;16.25;;;10.10;99.90;;;;;;5026032;28;20021;-61
2021/11/19 04:28:46;;;;;;;30.30;14.98;;;10.10;99.90;;;;;;5019594;28;20483;-62
2021/11/19 04:31:14;;;;;;;33.40;16.40;;;10.10;99.90;;;;;;5025078;28;20043;-62
2021/11/19 04:33:40;;;;;;;28.85;15.82;;;10.10;99.90;;;;;;5021147;28;20037;-61
2021/11/19 04:36:07;;;;;;;29.42;14.82;;;10.10;99.90;;;;;;5026074;28;20403;-62
2021/11/19 04:38:33;;;;;;;33.72;15.27;;;10.10;99.90;;;;;;5023942;28;20080;-61
2021/11/19 04:40:59;;;;;;;23.00;13.52;;;10.10;99.90;;;;;;5025231;28;20032;-61
2021/11/19 04:43:26;;;;;;;25.92;13.45;;;10.10;99.90;;;;;;5027060;28;20026;-59
2021/11/19 04:45:53;;;;;;;25.88;14.48;;;10.10;99.90;;;;;;5030034;28;20029;-61
2021/11/19 04:48:19;;;;;;;26.70;14.32;;;10.10;99.90;;;;;;5021510;28;20037;-59
2021/11/19 04:50:48;;;;;;;25.38;14.52;;;10.10;99.90;;;;;;5023294;28;20032;-61
2021/11/19 04:53:16;;;;;;;25.80;13.73;;;10.10;99.90;;;;;;5024539;28;20025;-62
2021/11/19 04:55:43;;;;;;;33.13;15.02;;;10.10;99.90;;;;;;5020405;28;20071;-61
2021/11/19 04:58:09;;;;;;;27.63;14.63;;;10.20;99.90;;;;;;5021207;28;20443;-61
2021/11/19 05:00:42;;;;;;;30.13;14.20;;;10.20;99.90;;;;;;5026978;28;20057;-62
2021/11/19 05:03:09;;;;;;;22.15;13.02;;;10.20;99.90;;;;;;5022272;28;20044;-62
2021/11/19 05:05:36;;;;;;;25.02;14.27;;;10.20;99.90;;;;;;5022332;28;20030;-61
2021/11/19 05:08:04;;;;;;;27.50;14.43;;;10.20;99.90;;;;;;5025851;28;20557;-61
2021/11/19 05:10:29;;;;;;;25.65;14.90;;;10.20;99.90;;;;;;5017190;28;20026;-60
2021/11/19 05:12:57;;;;;;;26.55;14.65;;;10.20;99.90;;;;;;5025887;28;20094;-60
2021/11/19 05:15:25;;;;;;;25.38;14.10;;;10.20;99.90;;;;;;5022449;28;20042;-60
2021/11/19 05:17:50;;;;;;;30.17;15.07;;;10.20;99.90;;;;;;5029559;28;20033;-61
2021/11/19 05:20:19;;;;;;;30.30;14.82;;;10.20;99.90;;;;;;5025060;28;20033;-61
2021/11/19 05:22:45;;;;;;;30.33;15.35;;;10.20;99.90;;;;;;5026166;28;20051;-61
2021/11/19 05:25:13;;;;;;;29.38;15.50;;;10.20;99.90;;;;;;5019769;28;20522;-61
2021/11/19 05:27:39;;;;;;;25.88;14.73;;;10.20;99.90;;;;;;5021358;28;20032;-60
2021/11/19 05:30:07;;;;;;;27.00;15.25;;;10.20;99.90;;;;;;5029642;28;20038;-59
2021/11/19 05:32:32;;;;;;;34.45;17.13;;;10.20;99.90;;;;;;5025422;28;20477;-60
2021/11/19 05:34:58;;;;;;;27.92;14.48;;;10.20;99.90;;;;;;5023575;28;20156;-61
2021/11/19 05:37:24;;;;;;;31.77;17.23;;;10.20;99.90;;;;;;5030345;28;20473;-60
2021/11/19 05:39:49;;;;;;;33.90;16.92;;;10.20;99.90;;;;;;5026070;28;20040;-61
2021/11/19 05:42:15;;;;;;;34.83;17.17;;;10.20;99.90;;;;;;5036480;28;20427;-61
2021/11/19 05:44:43;;;;;;;32.80;16.00;;;10.20;99.90;;;;;;5027915;28;20112;-60
2021/11/19 05:47:10;;;;;;;37.45;18.20;;;10.20;99.90;;;;;;5030501;28;20033;-61
2021/11/19 05:49:36;;;;;;;34.95;17.08;;;10.20;99.90;;;;;;5031044;28;20021;-62
2021/11/19 05:52:04;;;;;;;35.10;18.30;;;10.20;99.90;;;;;;5025108;28;20041;-59
2021/11/19 05:54:32;;;;;;;30.52;16.42;;;10.30;99.90;;;;;;5018374;28;20065;-61
2021/11/19 05:56:58;;;;;;;33.97;17.25;;;10.30;99.90;;;;;;5023634;28;20424;-60
2021/11/19 05:59:24;;;;;;;31.50;17.35;;;10.30;99.90;;;;;;5007568;28;20030;-61
2021/11/19 06:01:50;;;;;;;35.90;17.08;;;10.30;99.90;;;;;;5027374;28;20106;-60
2021/11/19 06:04:15;;;;;;;36.10;18.08;;;10.30;99.90;;;;;;5023347;28;20097;-61
2021/11/19 06:06:43;;;;;;;34.08;16.80;;;10.30;99.90;;;;;;5028385;28;20033;-60
2021/11/19 06:09:16;;;;;;;33.28;17.25;;;10.40;99.90;;;;;;5022945;28;20423;-58
2021/11/19 06:11:46;;;;;;;36.05;17.73;;;10.40;99.90;;;;;;5026179;28;20029;-60
2021/11/19 06:14:22;;;;;;;33.80;18.02;;;10.40;99.90;;;;;;5022817;28;20087;-60
2021/11/19 06:16:54;;;;;;;36.40;17.38;;;10.40;99.90;;;;;;5028046;28;20514;-61
2021/11/19 06:19:23;;;;;;;37.72;18.90;;;10.40;99.90;;;;;;5024872;28;20026;-62
2021/11/19 06:21:55;;;;;;;39.30;17.38;;;10.40;99.90;;;;;;4996604;28;20595;-61
2021/11/19 06:24:26;;;;;;;34.78;17.83;;;10.40;99.90;;;;;;5025220;28;20026;-62
2021/11/19 06:26:52;;;;;;;32.78;17.35;;;10.40;99.90;;;;;;5025223;28;20057;-62
2021/11/19 06:29:18;;;;;;;32.25;17.15;;;10.40;99.90;;;;;;5022986;28;20485;-61
2021/11/19 06:31:46;;;;;;;32.10;17.00;;;10.40;99.90;;;;;;5026651;28;20021;-60
2021/11/19 06:34:12;;;;;;;32.40;17.48;;;10.40;99.90;;;;;;5021828;28;20554;-60
2021/11/19 06:36:41;;;;;;;31.58;17.15;;;10.30;99.90;;;;;;5026332;28;20121;-61
2021/11/19 06:39:08;;;;;;;31.40;16.73;;;10.40;99.90;;;;;;5017164;28;20030;-61
2021/11/19 06:41:33;;;;;;;30.30;16.98;;;10.40;99.90;;;;;;5023917;28;20034;-61
2021/11/19 06:43:59;;;;;;;33.28;16.40;;;10.40;99.90;;;;;;5015714;28;20088;-61
2021/11/19 06:46:24;;;;;;;36.17;18.85;;;10.40;99.90;;;;;;5022227;28;20081;-61
2021/11/19 06:48:50;;;;;;;32.40;18.00;;;10.40;99.90;;;;;;5025943;28;20083;-60
2021/11/19 06:51:17;;;;;;;29.55;15.65;;;10.40;99.90;;;;;;5017603;28;20035;-61
2021/11/19 06:53:43;;;;;;;37.30;16.92;;;10.40;99.90;;;;;;5027758;28;20112;-59
2021/11/19 06:56:10;;;;;;;32.30;15.43;;;10.40;99.90;;;;;;4998005;28;20774;-60
2021/11/19 06:58:36;;;;;;;32.88;16.48;;;10.40;99.90;;;;;;5021152;28;20382;-59
2021/11/19 07:01:03;;;;;;;34.10;17.20;;;10.40;99.90;;;;;;5027533;28;20049;-60
2021/11/19 07:03:29;;;;;;;31.45;16.95;;;10.40;99.90;;;;;;5028457;28;20071;-58
2021/11/19 07:05:56;;;;;;;33.42;16.25;;;10.40;99.90;;;;;;5026822;28;20380;-61
2021/11/19 07:08:21;;;;;;;28.88;15.57;;;10.40;99.90;;;;;;5024134;28;20036;-59
2021/11/19 07:10:50;;;;;;;34.28;18.13;;;10.40;99.90;;;;;;5024135;28;20431;-61
2021/11/19 07:13:17;;;;;;;31.23;17.38;;;10.40;99.90;;;;;;5027325;28;20033;-62
2021/11/19 07:15:43;;;;;;;31.17;16.52;;;10.40;99.90;;;;;;5017073;28;20037;-61
2021/11/19 07:18:09;;;;;;;31.70;17.05;;;10.40;99.90;;;;;;5023882;28;20399;-60
2021/11/19 07:20:35;;;;;;;28.65;16.35;;;10.40;99.90;;;;;;5019247;28;20127;-57
2021/11/19 07:23:01;;;;;;;30.00;15.23;;;10.40;99.90;;;;;;5020024;28;20030;-56
2021/11/19 07:25:29;;;;;;;32.15;16.52;;;10.40;99.90;;;;;;5024317;28;20380;-57
2021/11/19 07:27:57;;;;;;;30.90;15.15;;;10.40;99.90;;;;;;5019061;28;20045;-57
2021/11/19 07:30:33;;;;;;;30.48;16.33;;;10.40;99.90;;;;;;5022343;28;20041;-53
2021/11/19 07:33:00;;;;;;;33.40;15.40;;;10.50;99.90;;;;;;5022761;28;20061;-55
2021/11/19 07:35:26;;;;;;;27.15;15.73;;;10.50;99.90;;;;;;5021352;28;20030;-59
2021/11/19 07:40:38;;;;;;;23.58;14.32;;;10.60;99.90;;;;;;5045720;28;20119;-66
2021/11/19 07:43:03;;;;;;;28.50;14.02;;;10.60;99.90;;;;;;5048995;28;20025;-64
2021/11/19 07:45:35;;;;;;;30.00;15.02;;;10.60;99.90;;;;;;5049986;28;20029;-65
2021/11/19 07:48:05;;;;;;;31.02;14.50;;;10.60;99.90;;;;;;5043848;28;20387;-64
2021/11/19 07:50:32;;;;;;;25.23;13.88;;;10.60;99.90;;;;;;5043231;28;20021;-65
2021/11/19 07:52:57;;;;;;;26.40;14.05;;;10.60;99.90;;;;;;5049583;28;20021;-65
2021/11/19 07:55:23;;;;;;;24.88;13.93;;;10.60;99.90;;;;;;5049358;28;20017;-65
2021/11/19 07:57:49;;;;;;;30.65;14.93;;;10.70;99.90;;;;;;5048808;28;20017;-64
2021/11/19 08:00:19;;;;;;;24.45;14.05;;;10.60;99.90;;;;;;5048838;28;20028;-65
2021/11/19 08:02:46;;;;;;;22.02;13.32;;;10.60;99.90;;;;;;5049646;28;20036;-64
2021/11/19 08:05:12;;;;;;;23.40;13.75;;;10.60;99.90;;;;;;5049142;28;20025;-64
2021/11/19 08:07:38;;;;;;;23.98;13.43;;;10.60;99.90;;;;;;5046593;28;20044;-64
2021/11/19 08:10:06;;;;;;;25.38;13.57;;;10.60;99.90;;;;;;5046962;28;20036;-63
2021/11/19 08:12:32;;;;;;;28.35;14.45;;;10.60;99.90;;;;;;5046075;28;20055;-64
2021/11/19 08:14:58;;;;;;;27.33;14.93;;;10.60;99.90;;;;;;5048063;28;20033;-64
2021/11/19 08:17:45;;;;;;;25.02;14.40;;;10.60;99.90;;;;;;5045888;28;20025;-65
2021/11/19 08:20:16;;;;;;;24.85;14.85;;;10.70;99.90;;;;;;5048651;28;20375;-63
2021/11/19 08:22:42;;;;;;;24.10;14.18;;;10.70;99.90;;;;;;5042689;28;20501;-66
2021/11/19 08:25:09;;;;;;;23.73;14.55;;;10.70;99.90;;;;;;5047427;28;20060;-64
2021/11/19 08:27:39;;;;;;;23.38;13.95;;;10.70;99.90;;;;;;5012786;28;20410;-64
2021/11/19 08:30:10;;;;;;;22.52;12.82;;;10.70;99.90;;;;;;5042909;28;20025;-63
2021/11/19 08:32:35;;;;;;;23.20;14.15;;;10.70;99.90;;;;;;5046362;28;20103;-64
2021/11/19 08:35:02;;;;;;;24.95;13.50;;;10.70;99.90;;;;;;5048779;28;20128;-64
2021/11/19 08:37:28;;;;;;;20.98;13.82;;;10.70;99.90;;;;;;5048668;28;20427;-67
2021/11/19 08:39:54;;;;;;;23.70;13.95;;;10.80;99.90;;;;;;5039750;28;20056;-64
2021/11/19 08:42:21;;;;;;;21.25;12.80;;;10.80;99.90;;;;;;5047393;28;20089;-64
2021/11/19 08:44:47;;;;;;;21.00;13.02;;;10.90;99.90;;;;;;5044123;28;20075;-64
2021/11/19 08:47:15;;;;;;;20.33;12.55;;;10.80;99.90;;;;;;5049017;28;20025;-64
2021/11/19 08:49:41;;;;;;;21.45;14.05;;;10.90;99.90;;;;;;5048223;28;20024;-64
2021/11/19 08:52:11;;;;;;;22.17;13.73;;;10.90;99.90;;;;;;5048664;28;20078;-65
2021/11/19 08:54:38;;;;;;;22.00;13.77;;;10.80;99.90;;;;;;5049343;28;20032;-65
2021/11/19 08:57:07;;;;;;;21.60;13.30;;;10.90;99.90;;;;;;5048673;28;20372;-65
2021/11/19 08:59:35;;;;;;;23.48;13.32;;;10.90;99.90;;;;;;5048056;28;20159;-64
2021/11/19 09:02:02;;;;;;;19.00;12.68;;;10.90;99.90;;;;;;5047297;28;20024;-64
2021/11/19 09:04:29;;;;;;;18.05;12.77;;;10.90;99.90;;;;;;5048581;28;20029;-65
2021/11/19 09:06:56;;;;;;;20.10;13.73;;;10.90;99.90;;;;;;5048662;28;20021;-65
2021/11/19 09:09:25;;;;;;;20.42;13.13;;;10.90;99.90;;;;;;5045774;28;20025;-65
2021/11/19 09:11:51;;;;;;;27.25;16.35;;;11.00;99.90;;;;;;5048115;28;20028;-65
2021/11/19 09:14:17;;;;;;;23.35;14.05;;;11.00;99.90;;;;;;5047956;28;20025;-65
2021/11/19 09:17:11;;;;;;;22.85;13.75;;;11.00;99.90;;;;;;5048432;28;20051;-65
2021/11/19 09:19:50;;;;;;;21.40;13.20;;;11.00;99.90;;;;;;5048784;28;20021;-65
2021/11/19 09:22:29;;;;;;;19.63;12.07;;;11.00;99.90;;;;;;5048309;28;20028;-64
2021/11/19 09:24:55;;;;;;;27.90;14.05;;;11.00;99.90;;;;;;5048847;28;20493;-65
2021/11/19 09:27:21;;;;;;;16.98;11.88;;;11.10;99.90;;;;;;5048780;28;20037;-64
2021/11/19 09:29:54;;;;;;;18.63;12.02;;;11.00;99.90;;;;;;5048542;28;20056;-64
2021/11/19 09:32:22;;;;;;;20.25;12.38;;;11.10;99.90;;;;;;5048406;28;20033;-64
2021/11/19 09:34:51;;;;;;;20.52;12.32;;;11.00;99.90;;;;;;5047656;28;20036;-64
2021/11/19 09:37:18;;;;;;;20.35;13.18;;;11.10;99.90;;;;;;5048725;28;20025;-65
2021/11/19 09:39:45;;;;;;;20.70;12.23;;;11.20;99.90;;;;;;5047561;28;20032;-64
2021/11/19 09:42:26;;;;;;;21.83;12.50;;;11.20;99.90;;;;;;5048490;28;20123;-64
2021/11/19 09:45:29;;;;;;;17.98;12.05;;;11.20;99.90;;;;;;5048137;28;20013;-65
2021/11/19 09:48:07;;;;;;;20.77;11.38;;;11.20;99.90;;;;;;5048861;28;20075;-65
2021/11/19 09:50:56;;;;;;;18.75;10.75;;;11.20;99.90;;;;;;5048034;28;20112;-64
2021/11/19 09:53:43;;;;;;;18.05;11.57;;;11.20;99.90;;;;;;5048147;28;20033;-67
2021/11/19 09:56:34;;;;;;;17.33;11.60;;;11.20;99.90;;;;;;5048105;28;20029;-64
2021/11/19 09:59:29;;;;;;;16.17;11.55;;;11.30;99.90;;;;;;5042473;28;20033;-64
2021/11/19 10:02:27;;;;;;;13.93;10.60;;;11.20;99.90;;;;;;5044426;28;20025;-65
2021/11/19 10:05:25;;;;;;;16.77;10.98;;;11.20;99.90;;;;;;5041514;28;20490;-65
2021/11/19 10:08:21;;;;;;;18.77;11.32;;;11.30;99.90;;;;;;5045439;28;20113;-65
2021/11/19 10:11:01;;;;;;;15.43;10.50;;;11.30;99.90;;;;;;5046285;28;20112;-65
2021/11/19 10:13:50;;;;;;;15.93;10.55;;;11.30;99.90;;;;;;5049063;28;20057;-65
2021/11/19 10:16:31;;;;;;;16.10;10.88;;;11.30;99.90;;;;;;5034250;28;20029;-64
2021/11/19 10:19:13;;;;;;;16.05;10.00;;;11.40;99.90;;;;;;5050202;28;20017;-63
2021/11/19 10:22:01;;;;;;;17.35;11.18;;;11.30;99.90;;;;;;5052617;28;20112;-64
2021/11/19 10:24:59;;;;;;;16.05;10.45;;;11.30;99.90;;;;;;5032142;28;20033;-63
2021/11/19 10:27:29;;;;;;;16.52;10.38;;;11.40;99.90;;;;;;5051522;28;20013;-65
2021/11/19 10:30:08;;;;;;;14.60;10.07;;;11.40;99.90;;;;;;5050637;28;20017;-63
2021/11/19 10:32:34;;;;;;;13.07;9.60;;;11.40;99.90;;;;;;5045656;28;20505;-64
2021/11/19 10:35:12;;;;;;;16.23;9.98;;;11.50;99.90;;;;;;5049477;28;20045;-63
2021/11/19 10:37:57;;;;;;;14.80;9.52;;;11.50;99.90;;;;;;5050967;28;20493;-65
2021/11/19 10:41:01;;;;;;;16.05;9.95;;;11.50;99.90;;;;;;5050894;28;20116;-64
2021/11/19 10:43:47;;;;;;;15.68;10.10;;;11.40;99.90;;;;;;5026035;28;20087;-65
2021/11/19 10:46:44;;;;;;;15.10;9.38;;;11.40;99.90;;;;;;5051352;28;20067;-64
2021/11/19 10:49:40;;;;;;;13.88;8.48;;;11.40;99.90;;;;;;5047527;28;20036;-64
2021/11/19 10:52:27;;;;;;;14.75;8.15;;;11.40;99.90;;;;;;5045833;28;20095;-64
2021/11/19 10:55:08;;;;;;;13.20;8.30;;;11.40;99.90;;;;;;5046818;28;20112;-65
2021/11/19 10:57:54;;;;;;;12.98;8.45;;;11.40;99.90;;;;;;5046095;28;20075;-63
2021/11/19 11:00:27;;;;;;;13.07;8.30;;;11.40;99.90;;;;;;5048229;28;20041;-64
2021/11/19 11:02:58;;;;;;;13.70;8.38;;;11.40;99.90;;;;;;5035526;28;20025;-64
2021/11/19 11:05:34;;;;;;;14.50;8.23;;;11.40;99.90;;;;;;5047273;28;20087;-64
2021/11/19 11:08:26;;;;;;;11.30;7.43;;;11.30;99.90;;;;;;5030756;28;20127;-65
2021/11/19 11:10:56;;;;;;;11.13;7.60;;;11.30;99.90;;;;;;5047245;28;20037;-65
2021/11/19 11:13:32;;;;;;;13.85;8.05;;;11.40;99.90;;;;;;5049742;28;20086;-65
2021/11/19 11:16:06;;;;;;;13.15;8.63;;;11.40;99.90;;;;;;5048226;28;20031;-65
2021/11/19 11:18:56;;;;;;;12.63;8.85;;;11.40;99.90;;;;;;5047846;28;20060;-66
2021/11/19 11:21:34;;;;;;;14.43;8.57;;;11.40;99.90;;;;;;5049772;28;20021;-64
2021/11/19 11:24:32;;;;;;;20.05;9.88;;;11.40;99.90;;;;;;5050120;28;20521;-65
2021/11/19 11:27:15;;;;;;;15.20;9.05;;;11.50;99.90;;;;;;5044983;28;20029;-64
2021/11/19 11:29:56;;;;;;;13.10;8.52;;;11.50;99.90;;;;;;5049647;28;20478;-64
2021/11/19 11:32:42;;;;;;;17.50;11.20;;;11.50;99.90;;;;;;5046573;28;20029;-65
2021/11/19 11:35:35;;;;;;;17.23;10.82;;;11.50;99.90;;;;;;5055403;28;20487;-64
2021/11/19 11:38:07;;;;;;;15.52;9.35;;;11.50;99.90;;;;;;5049746;28;20025;-64
2021/11/19 11:40:38;;;;;;;18.05;10.93;;;11.60;99.90;;;;;;5047288;28;20104;-65
2021/11/19 11:43:22;;;;;;;23.77;11.55;;;11.60;99.90;;;;;;5050160;28;20079;-64
2021/11/19 11:46:13;;;;;;;22.05;11.60;;;11.50;99.90;;;;;;5051020;28;20374;-63
2021/11/19 11:48:49;;;;;;;18.15;10.77;;;11.60;99.90;;;;;;5046113;28;20039;-65
2021/11/19 11:51:37;;;;;;;17.42;11.02;;;11.60;99.90;;;;;;5051395;28;20111;-65
2021/11/19 11:54:15;;;;;;;19.42;11.07;;;11.60;99.90;;;;;;5054514;28;20043;-65
2021/11/19 11:56:44;;;;;;;22.05;10.43;;;11.70;99.90;;;;;;5044213;28;20104;-65
2021/11/19 11:59:18;;;;;;;19.95;10.43;;;11.70;99.90;;;;;;5044949;28;20082;-62
2021/11/19 12:01:50;;;;;;;17.63;9.80;;;11.70;99.90;;;;;;5038460;28;20036;-66
2021/11/19 12:04:38;;;;;;;21.95;10.90;;;11.70;99.90;;;;;;5042569;28;20043;-66
2021/11/19 12:07:31;;;;;;;15.57;10.13;;;11.70;99.90;;;;;;5042186;28;20033;-65
2021/11/19 12:10:35;;;;;;;21.25;11.02;;;11.60;99.90;;;;;;5043356;28;20056;-64
2021/11/19 12:13:05;;;;;;;15.20;9.77;;;11.70;99.90;;;;;;5026622;28;20037;-65
2021/11/19 12:16:08;;;;;;;17.17;11.13;;;11.70;99.90;;;;;;5042942;28;20426;-65
2021/11/19 12:18:49;;;;;;;20.55;11.82;;;11.80;99.90;;;;;;5034900;28;20118;-64
2021/11/19 12:21:32;;;;;;;22.10;12.02;;;11.70;99.90;;;;;;5037043;28;20036;-66
2021/11/19 12:24:25;;;;;;;20.40;11.40;;;11.80;99.90;;;;;;5041433;28;20025;-64
2021/11/19 12:27:28;;;;;;;20.17;12.35;;;11.80;99.90;;;;;;5039928;28;20310;-64
2021/11/19 12:29:59;;;;;;;23.33;12.52;;;11.80;99.90;;;;;;5042924;28;20079;-64
2021/11/19 12:32:30;;;;;;;23.25;12.30;;;11.80;99.90;;;;;;5039054;28;20116;-64
2021/11/19 12:35:02;;;;;;;22.90;12.77;;;11.90;99.90;;;;;;5022584;28;20031;-63
2021/11/19 12:38:04;;;;;;;20.90;11.90;;;11.90;99.90;;;;;;5041490;28;20067;-64
2021/11/19 12:40:52;;;;;;;20.58;12.20;;;12.00;99.90;;;;;;5027219;28;20033;-66
2021/11/19 12:43:21;;;;;;;22.02;12.68;;;11.90;99.90;;;;;;5041203;28;20041;-64
2021/11/19 12:46:18;;;;;;;23.02;13.40;;;11.90;99.90;;;;;;5040527;28;20112;-64
2021/11/19 12:48:55;;;;;;;20.30;12.32;;;11.80;99.90;;;;;;5033830;28;20032;-66
2021/11/19 12:51:32;;;;;;;25.30;14.32;;;11.90;99.90;;;;;;5036364;28;20032;-65
2021/11/19 12:54:04;;;;;;;25.95;13.65;;;11.90;99.90;;;;;;5041618;28;20075;-65
2021/11/19 12:56:41;;;;;;;20.73;12.25;;;11.90;99.90;;;;;;5040617;28;20033;-65